createdAt,value
2022-08-23T00:01:39.265Z,56.90
2022-08-23T00:04:11.516Z,56.90
2022-08-23T00:06:41.781Z,56.90
2022-08-23T00:09:11.562Z,56.80
2022-08-23T00:11:45.353Z,56.70
2022-08-23T00:14:17.603Z,56.80
2022-08-23T00:16:47.597Z,56.70
2022-08-23T00:19:18.185Z,56.80
2022-08-23T00:21:48.510Z,56.90
2022-08-23T00:24:18.440Z,57.00
2022-08-23T00:26:59.169Z,57.20
2022-08-23T00:29:31.811Z,57.20
2022-08-23T00:32:01.942Z,57.20
2022-08-23T00:34:31.846Z,57.40
2022-08-23T00:37:01.072Z,57.40
2022-08-23T00:39:30.111Z,57.40
2022-08-23T00:42:25.214Z,57.50
2022-08-23T00:45:12.076Z,57.50
2022-08-23T00:47:41.806Z,57.30
2022-08-23T00:50:24.070Z,57.40
2022-08-23T00:53:03.971Z,57.60
2022-08-23T00:55:33.908Z,57.60
2022-08-23T00:58:04.763Z,57.60
2022-08-23T01:00:34.013Z,57.60
2022-08-23T01:03:04.079Z,57.60
2022-08-23T01:05:52.324Z,57.70
2022-08-23T01:08:24.156Z,57.80
2022-08-23T01:10:58.206Z,57.80
2022-08-23T01:13:34.034Z,57.70
2022-08-23T01:16:10.335Z,57.70
2022-08-23T01:18:40.515Z,57.80
2022-08-23T01:21:15.562Z,57.70
2022-08-23T01:23:49.546Z,57.70
2022-08-23T01:26:21.946Z,57.90
2022-08-23T01:28:52.269Z,58.10
2022-08-23T01:31:23.391Z,58.10
2022-08-23T01:33:58.603Z,58.30
2022-08-23T01:36:28.618Z,58.40
2022-08-23T01:38:59.112Z,58.40
2022-08-23T01:41:28.137Z,58.30
2022-08-23T01:43:56.975Z,58.30
2022-08-23T01:46:28.395Z,58.20
2022-08-23T01:48:58.505Z,58.10
2022-08-23T01:51:31.174Z,58.30
2022-08-23T01:54:01.980Z,58.10
2022-08-23T01:56:38.748Z,58.10
2022-08-23T01:59:14.487Z,58.10
2022-08-23T02:01:48.313Z,58.20
2022-08-23T02:04:18.473Z,58.30
2022-08-23T02:06:48.090Z,58.30
2022-08-23T02:09:22.777Z,58.30
2022-08-23T02:11:56.190Z,58.40
2022-08-23T02:14:26.207Z,58.40
2022-08-23T02:17:04.541Z,58.40
2022-08-23T02:19:39.517Z,58.50
2022-08-23T02:22:09.646Z,58.50
2022-08-23T02:24:43.644Z,58.60
2022-08-23T02:27:15.311Z,58.50
2022-08-23T02:29:47.128Z,58.50
2022-08-23T02:32:18.851Z,58.50
2022-08-23T02:34:51.198Z,58.50
2022-08-23T02:37:33.643Z,58.50
2022-08-23T02:40:04.448Z,58.50
2022-08-23T02:42:34.863Z,58.60
2022-08-23T02:45:05.410Z,58.60
2022-08-23T02:47:37.238Z,58.60
2022-08-23T02:50:21.758Z,58.60
2022-08-23T02:52:51.296Z,58.60
2022-08-23T02:55:21.838Z,58.70
2022-08-23T02:57:51.245Z,58.70
2022-08-23T03:00:21.430Z,58.70
2022-08-23T03:02:52.851Z,58.80
2022-08-23T03:05:22.687Z,58.90
2022-08-23T03:07:51.674Z,58.90
2022-08-23T03:10:23.187Z,58.90
2022-08-23T03:12:58.428Z,59.00
2022-08-23T03:15:27.602Z,58.90
2022-08-23T03:17:56.758Z,58.90
2022-08-23T03:20:25.692Z,59.00
2022-08-23T03:22:55.063Z,59.10
2022-08-23T03:25:28.371Z,59.10
2022-08-23T03:28:16.815Z,59.20
2022-08-23T03:30:47.288Z,59.20
2022-08-23T03:33:16.823Z,59.40
2022-08-23T03:35:48.450Z,59.40
2022-08-23T03:38:19.369Z,59.50
2022-08-23T03:40:52.389Z,59.50
2022-08-23T03:43:22.162Z,59.40
2022-08-23T03:45:51.219Z,59.30
2022-08-23T03:48:20.169Z,59.30
2022-08-23T03:50:50.683Z,59.30
2022-08-23T03:53:25.230Z,59.20
2022-08-23T03:55:57.340Z,59.30
2022-08-23T03:58:27.920Z,59.30
2022-08-23T04:00:57.329Z,59.30
2022-08-23T04:03:27.474Z,59.30
2022-08-23T04:06:04.637Z,59.30
2022-08-23T04:08:34.417Z,59.30
2022-08-23T04:11:08.060Z,59.30
2022-08-23T04:13:40.180Z,59.20
2022-08-23T04:16:09.286Z,59.30
2022-08-23T04:18:39.939Z,59.30
2022-08-23T04:21:11.118Z,59.30
2022-08-23T04:23:41.063Z,59.40
2022-08-23T04:26:12.628Z,59.30
2022-08-23T04:28:44.266Z,59.20
2022-08-23T04:31:15.813Z,59.20
2022-08-23T04:33:52.243Z,59.20
2022-08-23T04:36:23.436Z,59.20
2022-08-23T04:38:53.655Z,59.30
2022-08-23T04:41:42.031Z,59.40
2022-08-23T04:44:12.377Z,59.60
2022-08-23T04:46:43.632Z,59.70
2022-08-23T04:49:13.958Z,59.70
2022-08-23T04:51:43.276Z,59.70
2022-08-23T04:54:23.764Z,59.70
2022-08-23T04:57:12.703Z,59.70
2022-08-23T04:59:43.174Z,59.70
2022-08-23T05:02:12.527Z,59.90
2022-08-23T05:04:42.168Z,60.10
2022-08-23T05:07:11.895Z,60.50
2022-08-23T05:09:40.981Z,60.80
2022-08-23T05:12:10.526Z,60.70
2022-08-23T05:14:40.851Z,60.80
2022-08-23T05:17:13.640Z,61.00
2022-08-23T05:19:44.202Z,61.60
2022-08-23T05:22:17.579Z,61.80
2022-08-23T05:25:07.971Z,61.00
2022-08-23T05:27:37.803Z,60.80
2022-08-23T05:30:15.192Z,60.80
2022-08-23T05:32:45.182Z,60.90
2022-08-23T05:35:15.563Z,60.80
2022-08-23T05:37:47.087Z,60.90
2022-08-23T05:40:18.056Z,60.90
2022-08-23T05:43:00.631Z,60.80
2022-08-23T05:45:30.930Z,60.70
2022-08-23T05:47:59.993Z,60.60
2022-08-23T05:50:38.986Z,60.50
2022-08-23T05:53:10.637Z,60.50
2022-08-23T05:55:40.442Z,60.60
2022-08-23T05:58:18.426Z,60.60
2022-08-23T06:00:49.731Z,60.60
2022-08-23T06:03:18.957Z,60.40
2022-08-23T06:05:49.337Z,60.40
2022-08-23T06:08:18.485Z,60.10
2022-08-23T06:10:47.730Z,60.10
2022-08-23T06:13:26.123Z,60.00
2022-08-23T06:15:57.444Z,60.00
2022-08-23T06:18:27.044Z,60.00
2022-08-23T06:21:05.804Z,60.10
2022-08-23T06:23:46.585Z,60.10
2022-08-23T06:26:18.738Z,60.10
2022-08-23T06:28:50.461Z,59.90
2022-08-23T06:31:38.734Z,60.00
2022-08-23T06:34:13.629Z,59.90
2022-08-23T06:37:20.366Z,60.30
2022-08-23T06:40:09.900Z,60.30
2022-08-23T06:43:11.240Z,60.10
2022-08-23T06:45:54.952Z,59.80
2022-08-23T06:48:29.687Z,59.70
2022-08-23T06:50:58.858Z,59.50
2022-08-23T06:53:33.976Z,60.00
2022-08-23T06:56:18.701Z,59.30
2022-08-23T06:59:06.358Z,59.30
2022-08-23T07:02:07.008Z,59.30
2022-08-23T07:04:56.097Z,59.20
2022-08-23T07:07:39.621Z,59.10
2022-08-23T07:10:15.241Z,59.00
2022-08-23T07:12:44.781Z,58.80
2022-08-23T07:15:15.321Z,58.70
2022-08-23T07:17:48.437Z,58.40
2022-08-23T07:20:19.168Z,58.50
2022-08-23T07:22:48.334Z,58.50
2022-08-23T07:25:18.156Z,58.60
2022-08-23T07:27:50.449Z,58.50
2022-08-23T07:30:22.174Z,58.70
2022-08-23T07:32:52.690Z,58.70
2022-08-23T07:35:25.233Z,58.60
2022-08-23T07:37:59.236Z,58.50
2022-08-23T07:40:38.173Z,58.70
2022-08-23T07:43:08.337Z,58.30
2022-08-23T07:45:40.759Z,58.40
2022-08-23T07:48:12.147Z,58.40
2022-08-23T07:51:01.286Z,58.60
2022-08-23T07:53:38.066Z,58.00
2022-08-23T07:56:11.092Z,57.90
2022-08-23T07:59:04.343Z,57.80
2022-08-23T08:01:41.982Z,57.20
2022-08-23T08:04:12.549Z,56.90
2022-08-23T08:07:04.952Z,56.80
2022-08-23T08:09:40.990Z,56.60
2022-08-23T08:12:11.061Z,56.70
2022-08-23T08:14:42.841Z,56.50
2022-08-23T08:17:13.696Z,56.40
2022-08-23T08:20:12.006Z,56.50
2022-08-23T08:22:50.814Z,56.40
2022-08-23T08:26:02.176Z,56.00
2022-08-23T08:28:32.393Z,56.40
2022-08-23T08:31:02.695Z,56.20
2022-08-23T08:33:34.303Z,56.00
2022-08-23T08:36:05.858Z,55.40
2022-08-23T08:38:48.481Z,55.60
2022-08-23T08:41:30.330Z,54.90
2022-08-23T08:44:11.916Z,54.60
2022-08-23T08:46:46.279Z,53.90
2022-08-23T08:49:32.731Z,54.20
2022-08-23T08:52:12.238Z,53.70
2022-08-23T08:54:48.165Z,53.70
2022-08-23T08:57:25.217Z,53.30
2022-08-23T09:00:01.749Z,53.00
2022-08-23T09:02:35.189Z,52.80
2022-08-23T09:05:14.699Z,52.90
2022-08-23T09:07:53.701Z,53.00
2022-08-23T09:10:48.394Z,52.40
2022-08-23T09:13:46.538Z,52.50
2022-08-23T09:16:30.917Z,52.30
2022-08-23T09:19:02.321Z,51.90
2022-08-23T09:21:39.880Z,51.80
2022-08-23T09:24:10.176Z,51.50
2022-08-23T09:27:01.016Z,51.40
2022-08-23T09:29:33.509Z,51.60
2022-08-23T09:32:04.703Z,52.10
2022-08-23T09:34:43.674Z,51.80
2022-08-23T09:37:19.848Z,51.70
2022-08-23T09:39:52.970Z,51.40
2022-08-23T09:42:36.507Z,51.50
2022-08-23T09:45:09.710Z,50.90
2022-08-23T09:47:44.449Z,51.30
2022-08-23T09:50:26.100Z,51.30
2022-08-23T09:53:04.468Z,51.10
2022-08-23T09:55:38.741Z,51.20
2022-08-23T09:58:23.197Z,50.80
2022-08-23T10:01:11.404Z,50.60
2022-08-23T10:03:43.080Z,50.10
2022-08-23T10:06:34.089Z,50.10
2022-08-23T10:09:08.667Z,50.10
2022-08-23T10:11:44.852Z,50.50
2022-08-23T10:14:18.280Z,50.90
2022-08-23T10:17:00.207Z,51.00
2022-08-23T10:19:38.404Z,51.40
2022-08-23T10:22:15.833Z,50.90
2022-08-23T10:25:02.615Z,51.00
2022-08-23T10:28:00.529Z,51.10
2022-08-23T10:30:41.340Z,50.90
2022-08-23T10:33:18.616Z,50.70
2022-08-23T10:36:03.027Z,50.90
2022-08-23T10:38:38.710Z,50.70
2022-08-23T10:41:42.203Z,50.80
2022-08-23T10:44:24.237Z,50.10
2022-08-23T10:47:09.190Z,50.20
2022-08-23T10:49:42.257Z,50.60
2022-08-23T10:52:18.586Z,50.30
2022-08-23T10:55:00.226Z,50.40
2022-08-23T10:57:35.263Z,50.30
2022-08-23T11:00:09.118Z,50.70
2022-08-23T11:02:50.658Z,50.70
2022-08-23T11:05:33.149Z,50.30
2022-08-23T11:08:10.823Z,50.10
2022-08-23T11:10:55.867Z,50.30
2022-08-23T11:13:29.874Z,50.40
2022-08-23T11:16:03.334Z,50.40
2022-08-23T11:18:43.448Z,49.90
2022-08-23T11:21:45.737Z,49.30
2022-08-23T11:24:50.844Z,49.80
2022-08-23T11:27:37.604Z,50.10
2022-08-23T11:30:46.755Z,49.90
2022-08-23T11:33:23.825Z,50.10
2022-08-23T11:36:17.863Z,48.90
2022-08-23T11:39:10.391Z,49.30
2022-08-23T11:42:01.966Z,49.40
2022-08-23T11:44:40.616Z,49.50
2022-08-23T11:47:13.164Z,49.20
2022-08-23T11:50:09.432Z,48.90
2022-08-23T11:53:15.266Z,49.40
2022-08-23T11:56:07.012Z,49.50
2022-08-23T11:59:02.547Z,50.20
2022-08-23T12:01:39.534Z,49.50
2022-08-23T12:04:14.530Z,49.40
2022-08-23T12:06:50.881Z,49.40
2022-08-23T12:09:56.718Z,48.70
2022-08-23T12:12:40.056Z,49.10
2022-08-23T12:15:13.744Z,48.40
2022-08-23T12:18:13.046Z,47.50
2022-08-23T12:20:48.286Z,48.40
2022-08-23T12:23:21.630Z,48.10
2022-08-23T12:26:08.768Z,47.60
2022-08-23T12:28:46.725Z,48.00
2022-08-23T12:31:23.889Z,46.70
2022-08-23T12:34:16.952Z,47.60
2022-08-23T12:36:50.910Z,47.70
2022-08-23T12:39:28.788Z,47.10
2022-08-23T12:42:07.892Z,47.10
2022-08-23T12:44:38.716Z,47.10
2022-08-23T12:47:14.970Z,47.00
2022-08-23T12:49:56.205Z,46.90
2022-08-23T12:52:27.681Z,46.80
2022-08-23T12:54:58.051Z,46.50
2022-08-23T12:57:33.321Z,46.20
2022-08-23T13:00:18.784Z,46.10
2022-08-23T13:02:54.560Z,46.30
2022-08-23T13:05:33.295Z,44.80
2022-08-23T13:08:05.649Z,45.10
2022-08-23T13:10:35.858Z,45.30
2022-08-23T13:13:05.133Z,45.30
2022-08-23T13:15:50.575Z,44.30
2022-08-23T13:18:31.710Z,44.70
2022-08-23T13:21:27.124Z,44.40
2022-08-23T13:24:00.968Z,43.90
2022-08-23T13:26:38.476Z,43.70
2022-08-23T13:29:25.856Z,44.00
2022-08-23T13:32:04.219Z,44.20
2022-08-23T13:34:48.746Z,44.30
2022-08-23T13:37:24.948Z,44.40
2022-08-23T13:39:57.281Z,43.70
2022-08-23T13:42:29.736Z,43.40
2022-08-23T13:44:58.831Z,43.40
2022-08-23T13:47:30.262Z,43.50
2022-08-23T13:50:11.552Z,43.30
2022-08-23T13:53:03.118Z,42.60
2022-08-23T13:55:31.051Z,42.90
2022-08-23T13:58:00.442Z,42.80
2022-08-23T14:00:30.040Z,43.10
2022-08-23T14:03:01.145Z,42.50
2022-08-23T14:05:30.245Z,42.90
2022-08-23T14:08:02.777Z,43.00
2022-08-23T14:10:32.390Z,42.90
2022-08-23T14:13:02.330Z,42.80
2022-08-23T14:18:22.140Z,42.80
2022-08-23T14:20:51.656Z,42.20
2022-08-23T14:23:20.928Z,42.50
2022-08-23T14:25:53.973Z,42.60
2022-08-23T14:28:24.634Z,42.40
2022-08-23T14:30:54.264Z,41.90
2022-08-23T14:33:24.734Z,41.90
2022-08-23T14:35:54.149Z,42.00
2022-08-23T14:38:23.279Z,42.30
2022-08-23T14:40:59.112Z,42.00
2022-08-23T14:43:29.644Z,41.60
2022-08-23T14:45:59.208Z,41.80
2022-08-23T14:48:30.091Z,41.50
2022-08-23T14:50:59.375Z,41.70
2022-08-23T14:53:31.484Z,41.80
2022-08-23T14:56:20.497Z,41.80
2022-08-23T14:58:50.139Z,41.60
2022-08-23T15:01:19.980Z,41.50
2022-08-23T15:03:50.701Z,41.80
2022-08-23T15:06:21.771Z,41.70
2022-08-23T15:08:51.220Z,42.00
2022-08-23T15:14:09.743Z,42.10
2022-08-23T15:16:39.269Z,42.20
2022-08-23T15:19:09.926Z,42.30
2022-08-23T15:21:39.179Z,42.20
2022-08-23T15:24:08.871Z,42.20
2022-08-23T15:26:38.091Z,42.10
2022-08-23T15:29:07.453Z,42.00
2022-08-23T15:31:36.642Z,42.20
2022-08-23T15:34:05.727Z,42.20
2022-08-23T15:36:44.154Z,42.20
2022-08-23T15:39:13.537Z,42.30
2022-08-23T15:41:42.753Z,42.40
2022-08-23T15:44:11.904Z,42.20
2022-08-23T15:46:41.203Z,42.40
2022-08-23T15:49:13.811Z,42.20
2022-08-23T15:51:44.323Z,42.20
2022-08-23T15:54:13.841Z,42.20
2022-08-23T15:56:46.083Z,42.20
2022-08-23T15:59:17.827Z,42.30
2022-08-23T16:01:47.191Z,42.10
2022-08-23T16:04:16.564Z,42.30
2022-08-23T16:06:47.047Z,42.50
2022-08-23T16:09:20.947Z,42.60
2022-08-23T16:11:51.523Z,42.60
2022-08-23T16:14:20.892Z,42.80
2022-08-23T16:16:49.988Z,42.70
2022-08-23T16:19:18.890Z,42.70
2022-08-23T16:21:53.419Z,42.90
2022-08-23T16:24:24.670Z,42.90
2022-08-23T16:26:54.362Z,42.80
2022-08-23T16:29:23.789Z,42.90
2022-08-23T16:31:53.635Z,43.00
2022-08-23T16:34:23.017Z,42.90
2022-08-23T16:36:57.133Z,43.00
2022-08-23T16:39:26.802Z,42.70
2022-08-23T16:41:56.242Z,42.80
2022-08-23T16:44:25.709Z,42.90
2022-08-23T16:46:54.965Z,43.00
2022-08-23T16:49:24.450Z,43.00
2022-08-23T16:51:56.025Z,43.20
2022-08-23T16:54:25.287Z,43.20
2022-08-23T16:56:54.392Z,43.20
2022-08-23T16:59:23.368Z,43.20
2022-08-23T17:01:56.014Z,43.30
2022-08-23T17:04:30.194Z,43.40
2022-08-23T17:07:01.419Z,43.30
2022-08-23T17:09:30.652Z,43.60
2022-08-23T17:12:00.073Z,43.50
2022-08-23T17:14:29.240Z,43.60
2022-08-23T17:16:59.947Z,43.80
2022-08-23T17:19:29.459Z,43.70
2022-08-23T17:21:59.932Z,43.80
2022-08-23T17:24:29.050Z,43.70
2022-08-23T17:26:58.139Z,43.80
2022-08-23T17:29:27.541Z,43.80
2022-08-23T17:32:00.496Z,44.00
2022-08-23T17:34:29.566Z,44.10
2022-08-23T17:36:59.919Z,44.00
2022-08-23T17:39:30.308Z,44.00
2022-08-23T17:41:59.535Z,44.10
2022-08-23T17:44:28.427Z,44.10
2022-08-23T17:46:57.788Z,44.20
2022-08-23T17:49:26.858Z,44.40
2022-08-23T17:51:55.882Z,44.50
2022-08-23T17:54:26.589Z,44.50
2022-08-23T17:56:56.766Z,44.70
2022-08-23T17:59:25.704Z,44.80
2022-08-23T18:01:54.899Z,45.00
2022-08-23T18:04:24.141Z,45.10
2022-08-23T18:06:53.468Z,45.00
2022-08-23T18:09:22.558Z,45.10
2022-08-23T18:11:52.964Z,45.20
2022-08-23T18:14:23.334Z,45.40
2022-08-23T18:16:52.921Z,45.40
2022-08-23T18:19:23.077Z,45.40
2022-08-23T18:21:52.166Z,45.50
2022-08-23T18:24:21.721Z,45.50
2022-08-23T18:27:10.271Z,45.60
2022-08-23T18:29:39.788Z,45.60
2022-08-23T18:32:12.380Z,45.70
2022-08-23T18:34:42.033Z,46.00
2022-08-23T18:37:11.279Z,46.00
2022-08-23T18:39:40.619Z,46.10
2022-08-23T18:42:12.157Z,46.20
2022-08-23T18:44:41.632Z,46.40
2022-08-23T18:47:10.991Z,46.50
2022-08-23T18:49:40.447Z,46.60
2022-08-23T18:52:09.884Z,46.70
2022-08-23T18:54:39.199Z,46.80
2022-08-23T18:57:08.277Z,46.90
2022-08-23T18:59:47.044Z,47.00
2022-08-23T19:02:17.128Z,47.00
2022-08-23T19:04:46.597Z,47.00
2022-08-23T19:07:16.029Z,47.10
2022-08-23T19:09:45.404Z,47.30
2022-08-23T19:12:14.915Z,47.70
2022-08-23T19:14:43.677Z,47.40
2022-08-23T19:17:14.090Z,47.50
2022-08-23T19:19:42.932Z,47.70
2022-08-23T19:22:13.812Z,47.90
2022-08-23T19:24:43.171Z,48.10
2022-08-23T19:27:12.624Z,48.10
2022-08-23T19:29:43.059Z,48.20
2022-08-23T19:32:13.859Z,48.30
2022-08-23T19:34:43.273Z,48.40
2022-08-23T19:37:20.602Z,48.40
2022-08-23T19:39:53.854Z,48.60
2022-08-23T19:42:23.471Z,48.80
2022-08-23T19:44:52.343Z,48.80
2022-08-23T19:47:28.171Z,49.10
2022-08-23T19:49:58.217Z,49.20
2022-08-23T19:52:27.877Z,49.10
2022-08-23T19:55:00.675Z,49.40
2022-08-23T19:57:35.818Z,49.20
2022-08-23T20:00:13.531Z,49.20
2022-08-23T20:02:47.326Z,49.50
2022-08-23T20:05:16.627Z,49.70
2022-08-23T20:07:46.345Z,49.90
2022-08-23T20:10:16.790Z,50.00
2022-08-23T20:12:46.129Z,50.10
2022-08-23T20:15:15.714Z,50.30
2022-08-23T20:17:45.320Z,50.40
2022-08-23T20:20:16.341Z,50.90
2022-08-23T20:23:03.307Z,50.90
2022-08-23T20:25:32.351Z,51.00
2022-08-23T20:28:05.305Z,51.10
2022-08-23T20:30:35.230Z,51.20
2022-08-23T20:33:04.995Z,51.40
2022-08-23T20:35:35.638Z,51.40
2022-08-23T20:38:05.320Z,51.50
2022-08-23T20:40:34.230Z,51.70
2022-08-23T20:43:03.348Z,51.80
2022-08-23T20:45:33.599Z,51.80
2022-08-23T20:48:02.942Z,51.80
2022-08-23T20:50:32.082Z,51.90
2022-08-23T20:53:02.772Z,52.00
2022-08-23T20:55:31.862Z,52.10
2022-08-23T20:58:00.927Z,52.30
2022-08-23T21:00:30.100Z,52.30
2022-08-23T21:02:59.455Z,52.50
2022-08-23T21:05:28.783Z,52.60
2022-08-23T21:07:58.555Z,52.70
2022-08-23T21:10:29.224Z,52.80
2022-08-23T21:12:58.736Z,52.90
2022-08-23T21:15:28.003Z,52.90
2022-08-23T21:17:57.109Z,53.10
2022-08-23T21:20:26.709Z,53.10
2022-08-23T21:22:55.829Z,53.10
2022-08-23T21:25:25.244Z,53.30
2022-08-23T21:27:58.087Z,53.20
2022-08-23T21:30:30.457Z,53.50
2022-08-23T21:32:59.880Z,53.70
2022-08-23T21:35:29.001Z,53.80
2022-08-23T21:37:58.029Z,53.90
2022-08-23T21:40:27.646Z,54.00
2022-08-23T21:42:58.579Z,54.10
2022-08-23T21:45:28.580Z,54.50
2022-08-23T21:47:58.588Z,54.20
2022-08-23T21:50:30.914Z,54.40
2022-08-23T21:53:01.456Z,54.20
2022-08-23T21:55:36.887Z,54.50
2022-08-23T21:58:08.448Z,54.70
2022-08-23T22:00:38.636Z,54.80
2022-08-23T22:03:07.934Z,54.80
2022-08-23T22:05:40.594Z,54.90
2022-08-23T22:08:10.451Z,55.00
2022-08-23T22:10:52.261Z,55.10
2022-08-23T22:13:29.278Z,55.30
2022-08-23T22:15:58.585Z,55.30
2022-08-23T22:18:27.835Z,55.40
2022-08-23T22:20:58.281Z,55.50
2022-08-23T22:23:28.250Z,55.50
2022-08-23T22:25:59.215Z,55.70
2022-08-23T22:28:32.425Z,55.80
2022-08-23T22:31:03.837Z,55.80
2022-08-23T22:33:34.358Z,55.80
2022-08-23T22:36:05.085Z,55.90
2022-08-23T22:38:34.116Z,56.00
2022-08-23T22:41:03.242Z,56.10
2022-08-23T22:43:33.859Z,56.10
2022-08-23T22:46:05.041Z,56.70
2022-08-23T22:48:35.786Z,56.20
2022-08-23T22:51:07.813Z,56.10
2022-08-23T22:53:39.275Z,56.20
2022-08-23T22:56:10.947Z,56.10
2022-08-23T22:58:41.332Z,56.10
2022-08-23T23:01:13.494Z,56.20
2022-08-23T23:03:42.639Z,56.20
2022-08-23T23:06:11.966Z,56.20
2022-08-23T23:08:41.100Z,56.30
2022-08-23T23:11:12.477Z,56.40
2022-08-23T23:13:42.965Z,56.40
2022-08-23T23:16:14.677Z,56.50
2022-08-23T23:19:04.851Z,56.70
2022-08-23T23:21:34.731Z,56.80
2022-08-23T23:24:04.931Z,56.90
2022-08-23T23:26:33.751Z,56.80
2022-08-23T23:29:03.968Z,56.80
2022-08-23T23:31:32.888Z,57.00
2022-08-23T23:34:01.871Z,57.10
2022-08-23T23:36:30.648Z,57.20
2022-08-23T23:39:00.056Z,57.20
2022-08-23T23:41:29.719Z,57.10
2022-08-23T23:43:58.678Z,57.10
2022-08-23T23:46:29.556Z,57.20
2022-08-23T23:48:58.414Z,57.40
2022-08-23T23:51:29.088Z,57.40
2022-08-23T23:54:01.255Z,57.60
2022-08-23T23:56:32.044Z,57.80
2022-08-23T23:59:01.163Z,57.70
